createdAt,value
2024-01-05T00:00:10.815Z,38.88
2024-01-05T00:00:42.608Z,38.70
2024-01-05T00:01:14.346Z,38.64
2024-01-05T00:01:46.000Z,38.63
2024-01-05T00:02:17.529Z,38.68
2024-01-05T00:02:49.115Z,38.82
2024-01-05T00:03:20.880Z,38.68
2024-01-05T00:03:52.526Z,38.75
2024-01-05T00:04:24.238Z,38.59
2024-01-05T00:04:55.883Z,38.86
2024-01-05T00:05:27.669Z,38.80
2024-01-05T00:05:59.403Z,38.85
2024-01-05T00:06:31.364Z,38.86
2024-01-05T00:07:03.017Z,38.28
2024-01-05T00:07:34.622Z,38.71
2024-01-05T00:08:06.516Z,38.74
2024-01-05T00:08:38.131Z,38.61
2024-01-05T00:09:09.902Z,38.17
2024-01-05T00:09:41.499Z,38.60
2024-01-05T00:10:13.184Z,38.89
2024-01-05T00:10:44.743Z,38.73
2024-01-05T00:11:21.435Z,38.49
2024-01-05T00:11:53.084Z,38.49
2024-01-05T00:12:24.788Z,38.57
2024-01-05T00:12:56.310Z,38.62
2024-01-05T00:13:27.982Z,38.74
2024-01-05T00:13:59.561Z,38.64
2024-01-05T00:14:31.096Z,38.52
2024-01-05T00:15:02.636Z,38.62
2024-01-05T00:15:34.363Z,38.66
2024-01-05T00:16:06.137Z,38.71
2024-01-05T00:16:37.762Z,38.75
2024-01-05T00:17:09.376Z,38.54
2024-01-05T00:17:41.066Z,38.31
2024-01-05T00:18:12.676Z,38.71
2024-01-05T00:18:44.474Z,38.46
2024-01-05T00:19:16.277Z,38.58
2024-01-05T00:19:47.941Z,38.64
2024-01-05T00:20:19.643Z,38.70
2024-01-05T00:20:51.356Z,38.73
2024-01-05T00:21:26.651Z,38.66
2024-01-05T00:21:58.353Z,38.52
2024-01-05T00:22:29.987Z,38.84
2024-01-05T00:23:01.633Z,38.97
2024-01-05T00:23:33.287Z,38.58
2024-01-05T00:24:04.998Z,38.71
2024-01-05T00:24:37.021Z,38.30
2024-01-05T00:25:08.687Z,38.33
2024-01-05T00:25:40.351Z,38.58
2024-01-05T00:26:11.886Z,38.73
2024-01-05T00:26:44.037Z,38.40
2024-01-05T00:27:15.929Z,38.64
2024-01-05T00:27:47.810Z,38.41
2024-01-05T00:28:19.365Z,38.60
2024-01-05T00:28:51.030Z,38.58
2024-01-05T00:29:22.716Z,38.50
2024-01-05T00:29:54.331Z,38.89
2024-01-05T00:30:26.083Z,38.77
2024-01-05T00:30:57.804Z,38.77
2024-01-05T00:31:29.490Z,38.68
2024-01-05T00:32:01.068Z,39.03
2024-01-05T00:32:32.670Z,38.71
2024-01-05T00:33:04.773Z,38.75
2024-01-05T00:33:36.555Z,38.81
2024-01-05T00:34:08.330Z,38.51
2024-01-05T00:34:40.306Z,38.72
2024-01-05T00:35:12.042Z,38.88
2024-01-05T00:35:43.614Z,38.70
2024-01-05T00:36:15.286Z,38.88
2024-01-05T00:36:47.218Z,38.68
2024-01-05T00:37:18.960Z,38.47
2024-01-05T00:37:50.512Z,38.91
2024-01-05T00:38:22.086Z,38.48
2024-01-05T00:38:53.616Z,38.72
2024-01-05T00:39:25.319Z,38.84
2024-01-05T00:39:56.904Z,38.82
2024-01-05T00:40:28.480Z,38.63
2024-01-05T00:41:00.219Z,38.53
2024-01-05T00:41:31.789Z,39.03
2024-01-05T00:42:03.416Z,38.68
2024-01-05T00:42:35.064Z,38.48
2024-01-05T00:43:06.699Z,38.57
2024-01-05T00:43:38.231Z,38.34
2024-01-05T00:44:09.770Z,38.39
2024-01-05T00:44:41.665Z,38.74
2024-01-05T00:45:13.312Z,38.85
2024-01-05T00:45:44.969Z,38.50
2024-01-05T00:46:16.613Z,38.64
2024-01-05T00:46:48.232Z,38.66
2024-01-05T00:47:19.805Z,38.90
2024-01-05T00:47:51.535Z,38.74
2024-01-05T00:48:23.367Z,38.85
2024-01-05T00:48:55.265Z,38.34
2024-01-05T00:49:27.071Z,38.48
2024-01-05T00:49:58.804Z,38.81
2024-01-05T00:50:30.455Z,38.56
2024-01-05T00:51:02.061Z,38.59
2024-01-05T00:51:33.744Z,38.73
2024-01-05T00:52:05.601Z,38.60
2024-01-05T00:52:37.121Z,38.72
2024-01-05T00:53:08.777Z,38.47
2024-01-05T00:53:40.535Z,38.68
2024-01-05T00:54:12.188Z,38.78
2024-01-05T00:54:43.787Z,38.55
2024-01-05T00:55:15.455Z,38.37
2024-01-05T00:55:47.155Z,38.56
2024-01-05T00:56:18.744Z,38.52
2024-01-05T00:56:50.444Z,38.67
2024-01-05T00:57:22.094Z,38.58
2024-01-05T00:57:53.718Z,38.64
2024-01-05T00:58:27.921Z,38.67
2024-01-05T00:58:59.567Z,38.89
2024-01-05T00:59:31.090Z,38.71
2024-01-05T01:00:02.750Z,38.70
2024-01-05T01:00:34.430Z,39.06
2024-01-05T01:01:07.014Z,38.58
2024-01-05T01:01:38.684Z,38.63
2024-01-05T01:02:10.305Z,38.59
2024-01-05T01:02:41.957Z,38.89
2024-01-05T01:03:13.626Z,38.59
2024-01-05T01:03:45.298Z,38.93
2024-01-05T01:04:17.141Z,38.83
2024-01-05T01:04:49.032Z,38.69
2024-01-05T01:05:20.717Z,38.77
2024-01-05T01:05:52.362Z,38.57
2024-01-05T01:06:24.000Z,38.54
2024-01-05T01:06:55.626Z,38.70
2024-01-05T01:07:27.292Z,38.74
2024-01-05T01:07:58.822Z,38.91
2024-01-05T01:08:30.378Z,38.63
2024-01-05T01:09:02.053Z,38.63
2024-01-05T01:09:33.667Z,38.86
2024-01-05T01:10:05.570Z,38.84
2024-01-05T01:10:37.166Z,38.96
2024-01-05T01:11:15.084Z,38.74
2024-01-05T01:11:46.776Z,38.70
2024-01-05T01:12:18.379Z,38.80
2024-01-05T01:12:50.049Z,38.82
2024-01-05T01:13:21.614Z,38.88
2024-01-05T01:13:53.093Z,39.14
2024-01-05T01:14:24.733Z,38.80
2024-01-05T01:14:56.293Z,38.62
2024-01-05T01:15:27.868Z,38.73
2024-01-05T01:15:59.523Z,38.87
2024-01-05T01:16:31.180Z,39.01
2024-01-05T01:17:02.821Z,38.85
2024-01-05T01:17:35.123Z,38.88
2024-01-05T01:18:06.937Z,38.70
2024-01-05T01:18:38.679Z,38.86
2024-01-05T01:19:10.435Z,38.55
2024-01-05T01:19:42.214Z,38.74
2024-01-05T01:20:13.853Z,39.02
2024-01-05T01:20:45.376Z,38.73
2024-01-05T01:21:16.998Z,38.77
2024-01-05T01:21:48.641Z,39.02
2024-01-05T01:22:20.187Z,39.10
2024-01-05T01:22:51.724Z,38.84
2024-01-05T01:23:23.321Z,38.68
2024-01-05T01:23:54.937Z,38.78
2024-01-05T01:24:26.724Z,39.08
2024-01-05T01:24:58.328Z,38.84
2024-01-05T01:25:29.938Z,38.76
2024-01-05T01:26:01.592Z,38.78
2024-01-05T01:26:33.181Z,38.88
2024-01-05T01:27:04.820Z,39.06
2024-01-05T01:27:36.427Z,38.88
2024-01-05T01:28:08.167Z,38.97
2024-01-05T01:28:39.754Z,38.71
2024-01-05T01:29:11.341Z,38.91
2024-01-05T01:29:42.943Z,38.83
2024-01-05T01:30:14.794Z,38.57
2024-01-05T01:30:46.720Z,38.81
2024-01-05T01:31:18.436Z,38.96
2024-01-05T01:31:50.107Z,38.50
2024-01-05T01:32:21.710Z,39.25
2024-01-05T01:32:53.354Z,38.85
2024-01-05T01:33:25.144Z,39.00
2024-01-05T01:33:56.874Z,38.95
2024-01-05T01:34:28.564Z,38.91
2024-01-05T01:35:00.242Z,38.96
2024-01-05T01:35:31.836Z,38.42
2024-01-05T01:36:03.499Z,38.66
2024-01-05T01:36:35.258Z,38.87
2024-01-05T01:37:06.838Z,38.82
2024-01-05T01:37:38.647Z,38.88
2024-01-05T01:38:10.237Z,39.00
2024-01-05T01:38:41.777Z,38.94
2024-01-05T01:39:13.461Z,38.70
2024-01-05T01:39:45.143Z,38.56
2024-01-05T01:40:16.760Z,38.62
2024-01-05T01:40:48.442Z,38.98
2024-01-05T01:41:20.107Z,38.87
2024-01-05T01:41:51.723Z,38.66
2024-01-05T01:42:23.448Z,39.05
2024-01-05T01:42:55.164Z,38.86
2024-01-05T01:43:27.068Z,38.99
2024-01-05T01:43:58.666Z,38.98
2024-01-05T01:44:30.320Z,39.08
2024-01-05T01:45:01.995Z,38.97
2024-01-05T01:45:33.843Z,38.75
2024-01-05T01:46:05.655Z,38.60
2024-01-05T01:46:37.216Z,38.97
2024-01-05T01:47:08.792Z,38.81
2024-01-05T01:47:40.823Z,38.81
2024-01-05T01:48:12.501Z,38.61
2024-01-05T01:48:44.218Z,38.86
2024-01-05T01:49:15.955Z,38.67
2024-01-05T01:49:47.787Z,38.89
2024-01-05T01:50:19.486Z,38.60
2024-01-05T01:50:51.184Z,38.68
2024-01-05T01:51:23.054Z,38.80
2024-01-05T01:51:54.643Z,38.89
2024-01-05T01:52:26.424Z,38.77
2024-01-05T01:52:58.053Z,38.99
2024-01-05T01:53:29.628Z,39.17
2024-01-05T01:54:01.620Z,38.59
2024-01-05T01:54:34.212Z,38.95
2024-01-05T01:55:06.647Z,38.83
2024-01-05T01:55:38.259Z,38.87
2024-01-05T01:56:09.890Z,38.67
2024-01-05T01:56:41.735Z,38.83
2024-01-05T01:57:13.492Z,38.75
2024-01-05T01:57:45.090Z,38.83
2024-01-05T01:58:17.109Z,38.64
2024-01-05T01:58:48.800Z,38.77
2024-01-05T01:59:20.418Z,38.68
2024-01-05T01:59:52.217Z,38.79
2024-01-05T02:00:23.964Z,38.94
2024-01-05T02:00:55.609Z,38.87
2024-01-05T02:01:27.189Z,39.19
2024-01-05T02:01:58.823Z,38.78
2024-01-05T02:02:30.556Z,38.92
2024-01-05T02:03:05.077Z,38.80
2024-01-05T02:03:36.795Z,39.01
2024-01-05T02:04:09.453Z,38.55
2024-01-05T02:04:41.278Z,38.71
2024-01-05T02:05:12.990Z,38.79
2024-01-05T02:05:44.661Z,38.84
2024-01-05T02:06:16.356Z,38.92
2024-01-05T02:06:47.997Z,38.73
2024-01-05T02:07:19.628Z,38.87
2024-01-05T02:07:51.240Z,38.64
2024-01-05T02:08:22.819Z,38.88
2024-01-05T02:08:54.422Z,38.95
2024-01-05T02:09:26.050Z,39.16
2024-01-05T02:09:57.616Z,38.61
2024-01-05T02:10:29.221Z,38.66
2024-01-05T02:11:00.796Z,38.88
2024-01-05T02:11:32.383Z,38.97
2024-01-05T02:12:04.090Z,38.89
2024-01-05T02:12:35.800Z,38.93
2024-01-05T02:13:07.615Z,39.06
2024-01-05T02:13:39.185Z,38.98
2024-01-05T02:14:10.788Z,38.90
2024-01-05T02:14:42.344Z,38.73
2024-01-05T02:15:13.925Z,38.86
2024-01-05T02:15:45.575Z,38.87
2024-01-05T02:16:17.190Z,38.96
2024-01-05T02:16:48.824Z,39.02
2024-01-05T02:17:30.156Z,38.65
2024-01-05T02:18:14.053Z,38.90
2024-01-05T02:18:52.343Z,38.93
2024-01-05T02:19:24.886Z,38.58
2024-01-05T02:19:56.521Z,38.77
2024-01-05T02:20:28.119Z,39.21
2024-01-05T02:21:00.962Z,39.10
2024-01-05T02:21:32.933Z,38.61
2024-01-05T02:22:04.570Z,38.61
2024-01-05T02:22:36.287Z,38.49
2024-01-05T02:23:08.847Z,38.65
2024-01-05T02:23:40.416Z,38.71
2024-01-05T02:24:12.111Z,38.93
2024-01-05T02:24:43.733Z,38.78
2024-01-05T02:25:15.388Z,39.08
2024-01-05T02:25:47.049Z,38.39
2024-01-05T02:26:18.643Z,38.68
2024-01-05T02:26:50.349Z,39.04
2024-01-05T02:27:22.004Z,38.91
2024-01-05T02:27:53.617Z,38.77
2024-01-05T02:28:25.364Z,38.71
2024-01-05T02:28:56.905Z,38.89
2024-01-05T02:29:28.443Z,39.00
2024-01-05T02:30:00.100Z,38.72
2024-01-05T02:30:31.863Z,38.86
2024-01-05T02:31:03.615Z,38.47
2024-01-05T02:31:35.310Z,38.31
2024-01-05T02:32:07.230Z,38.67
2024-01-05T02:32:38.800Z,38.73
2024-01-05T02:33:10.619Z,38.76
2024-01-05T02:33:42.348Z,38.40
2024-01-05T02:34:14.203Z,38.65
2024-01-05T02:34:45.846Z,39.01
2024-01-05T02:35:17.447Z,39.10
2024-01-05T02:35:48.991Z,38.78
2024-01-05T02:36:20.636Z,38.76
2024-01-05T02:36:52.189Z,38.72
2024-01-05T02:37:23.810Z,38.91
2024-01-05T02:37:55.343Z,38.73
2024-01-05T02:38:27.028Z,38.56
2024-01-05T02:38:58.615Z,38.87
2024-01-05T02:39:30.299Z,38.58
2024-01-05T02:40:01.928Z,39.08
2024-01-05T02:40:33.823Z,38.76
2024-01-05T02:41:07.103Z,38.90
2024-01-05T02:41:38.778Z,38.57
2024-01-05T02:42:10.355Z,38.76
2024-01-05T02:42:41.964Z,38.82
2024-01-05T02:43:13.583Z,38.68
2024-01-05T02:43:45.257Z,38.77
2024-01-05T02:44:16.861Z,38.96
2024-01-05T02:44:48.477Z,38.82
2024-01-05T02:45:20.190Z,38.38
2024-01-05T02:45:51.774Z,38.65
2024-01-05T02:46:23.325Z,39.07
2024-01-05T02:46:54.943Z,38.78
2024-01-05T02:47:26.592Z,38.77
2024-01-05T02:47:58.423Z,38.79
2024-01-05T02:48:30.228Z,38.71
2024-01-05T02:49:02.057Z,38.51
2024-01-05T02:49:33.805Z,38.88
2024-01-05T02:50:05.769Z,38.76
2024-01-05T02:50:37.394Z,38.82
2024-01-05T02:51:09.063Z,38.67
2024-01-05T02:51:40.802Z,38.61
2024-01-05T02:52:12.575Z,38.98
2024-01-05T02:52:44.172Z,38.74
2024-01-05T02:53:15.797Z,38.57
2024-01-05T02:53:47.418Z,38.65
2024-01-05T02:54:19.400Z,38.95
2024-01-05T02:54:51.033Z,38.81
2024-01-05T02:55:22.732Z,38.58
2024-01-05T02:55:54.260Z,39.06
2024-01-05T02:56:25.858Z,38.87
2024-01-05T02:56:57.561Z,38.73
2024-01-05T02:57:29.402Z,38.96
2024-01-05T02:58:03.956Z,38.65
2024-01-05T02:58:35.501Z,38.86
2024-01-05T02:59:07.193Z,38.57
2024-01-05T02:59:38.784Z,38.41
2024-01-05T03:00:10.534Z,38.55
2024-01-05T03:00:42.242Z,38.81
2024-01-05T03:01:17.107Z,38.77
2024-01-05T03:01:49.254Z,38.91
2024-01-05T03:02:20.811Z,38.40
2024-01-05T03:02:52.557Z,38.74
2024-01-05T03:03:24.224Z,38.98
2024-01-05T03:03:55.893Z,38.52
2024-01-05T03:04:27.629Z,38.82
2024-01-05T03:04:59.459Z,38.76
2024-01-05T03:05:31.061Z,38.73
2024-01-05T03:06:02.681Z,38.72
2024-01-05T03:06:34.497Z,38.85
2024-01-05T03:07:06.150Z,38.83
2024-01-05T03:07:37.730Z,38.58
2024-01-05T03:08:10.041Z,38.75
2024-01-05T03:08:41.603Z,38.56
2024-01-05T03:09:13.246Z,38.80
2024-01-05T03:09:44.776Z,38.69
2024-01-05T03:10:16.443Z,38.53
2024-01-05T03:10:48.083Z,38.56
2024-01-05T03:11:19.735Z,38.67
2024-01-05T03:11:51.288Z,38.70
2024-01-05T03:12:22.916Z,38.91
2024-01-05T03:12:54.551Z,38.77
2024-01-05T03:13:26.175Z,38.77
2024-01-05T03:13:57.798Z,38.50
2024-01-05T03:14:29.330Z,38.60
2024-01-05T03:15:00.978Z,38.72
2024-01-05T03:15:32.700Z,38.74
2024-01-05T03:16:04.996Z,38.75
2024-01-05T03:16:36.522Z,38.69
2024-01-05T03:17:08.138Z,38.65
2024-01-05T03:17:39.724Z,38.82
2024-01-05T03:18:11.664Z,38.44
2024-01-05T03:18:43.561Z,38.49
2024-01-05T03:19:15.335Z,38.83
2024-01-05T03:19:47.228Z,38.80
2024-01-05T03:20:19.145Z,38.77
2024-01-05T03:20:50.802Z,38.77
2024-01-05T03:21:23.105Z,38.78
2024-01-05T03:21:55.157Z,38.70
2024-01-05T03:22:29.283Z,38.63
2024-01-05T03:23:02.255Z,38.70
2024-01-05T03:23:33.846Z,38.66
2024-01-05T03:24:05.769Z,38.52
2024-01-05T03:24:37.452Z,38.58
2024-01-05T03:25:09.200Z,38.63
2024-01-05T03:25:40.772Z,38.78
2024-01-05T03:26:12.334Z,38.52
2024-01-05T03:26:44.763Z,38.64
2024-01-05T03:27:16.753Z,38.81
2024-01-05T03:27:48.361Z,38.73
2024-01-05T03:28:19.928Z,38.68
2024-01-05T03:28:51.456Z,38.57
2024-01-05T03:29:23.077Z,38.66
2024-01-05T03:29:54.669Z,38.39
2024-01-05T03:30:26.423Z,38.70
2024-01-05T03:30:58.207Z,38.17
2024-01-05T03:31:30.004Z,38.60
2024-01-05T03:32:01.646Z,38.46
2024-01-05T03:32:33.389Z,38.65
2024-01-05T03:33:05.178Z,38.79
2024-01-05T03:33:36.962Z,38.63
2024-01-05T03:34:08.900Z,38.45
2024-01-05T03:34:40.626Z,38.76
2024-01-05T03:35:12.306Z,38.71
2024-01-05T03:35:44.041Z,38.77
2024-01-05T03:36:15.686Z,38.76
2024-01-05T03:36:47.580Z,38.56
2024-01-05T03:37:19.543Z,38.59
2024-01-05T03:37:51.148Z,38.94
2024-01-05T03:38:22.723Z,38.43
2024-01-05T03:38:55.067Z,38.39
2024-01-05T03:39:26.733Z,38.48
2024-01-05T03:39:58.347Z,38.87
2024-01-05T03:40:29.945Z,38.42
2024-01-05T03:41:01.513Z,38.23
2024-01-05T03:41:33.179Z,38.44
2024-01-05T03:42:04.902Z,38.16
2024-01-05T03:42:36.639Z,38.44
2024-01-05T03:43:08.268Z,38.29
2024-01-05T03:43:39.853Z,38.35
2024-01-05T03:44:11.426Z,38.10
2024-01-05T03:44:43.036Z,38.47
2024-01-05T03:45:14.701Z,38.42
2024-01-05T03:45:46.773Z,38.44
2024-01-05T03:46:18.524Z,38.38
2024-01-05T03:46:52.886Z,38.21
2024-01-05T03:47:24.627Z,38.75
2024-01-05T03:47:56.402Z,38.46
2024-01-05T03:48:28.249Z,38.44
2024-01-05T03:49:00.107Z,38.14
2024-01-05T03:49:31.825Z,38.13
2024-01-05T03:50:03.588Z,38.18
2024-01-05T03:50:35.283Z,38.46
2024-01-05T03:51:06.954Z,38.51
2024-01-05T03:51:38.585Z,38.11
2024-01-05T03:52:10.153Z,38.39
2024-01-05T03:52:41.675Z,38.37
2024-01-05T03:53:13.274Z,38.17
2024-01-05T03:53:44.880Z,38.47
2024-01-05T03:54:16.565Z,38.15
2024-01-05T03:54:48.182Z,38.53
2024-01-05T03:55:19.837Z,38.37
2024-01-05T03:55:51.340Z,38.53
2024-01-05T03:56:22.886Z,38.45
2024-01-05T03:56:54.478Z,38.45
2024-01-05T03:57:26.113Z,38.74
2024-01-05T03:57:57.733Z,38.45
2024-01-05T03:58:29.358Z,38.01
2024-01-05T03:59:00.989Z,38.05
2024-01-05T03:59:32.599Z,38.60
2024-01-05T04:00:04.451Z,38.37
2024-01-05T04:00:36.159Z,38.45
2024-01-05T04:01:07.895Z,38.36
2024-01-05T04:01:45.632Z,38.66
2024-01-05T04:02:17.505Z,38.79
2024-01-05T04:02:49.354Z,38.58
2024-01-05T04:03:21.236Z,38.33
2024-01-05T04:03:52.996Z,38.52
2024-01-05T04:04:24.911Z,38.32
2024-01-05T04:04:56.820Z,38.69
2024-01-05T04:05:28.507Z,38.33
2024-01-05T04:06:00.205Z,38.46
2024-01-05T04:06:31.870Z,38.69
2024-01-05T04:07:03.511Z,38.35
2024-01-05T04:07:35.158Z,38.00
2024-01-05T04:08:06.811Z,38.60
2024-01-05T04:08:39.560Z,38.44
2024-01-05T04:09:11.400Z,38.26
2024-01-05T04:09:43.075Z,38.27
2024-01-05T04:10:14.649Z,38.29
2024-01-05T04:10:46.271Z,38.32
2024-01-05T04:11:20.400Z,38.54
2024-01-05T04:11:52.400Z,37.96
2024-01-05T04:12:24.080Z,38.48
2024-01-05T04:12:55.750Z,38.43
2024-01-05T04:13:27.361Z,38.59
2024-01-05T04:13:59.061Z,38.39
2024-01-05T04:14:30.652Z,38.51
2024-01-05T04:15:02.419Z,38.67
2024-01-05T04:15:37.189Z,38.20
2024-01-05T04:16:08.806Z,38.63
2024-01-05T04:16:40.590Z,38.44
2024-01-05T04:17:12.492Z,38.27
2024-01-05T04:17:44.090Z,38.04
2024-01-05T04:18:15.956Z,38.37
2024-01-05T04:18:47.903Z,38.27
2024-01-05T04:19:19.648Z,38.43
2024-01-05T04:19:51.412Z,38.13
2024-01-05T04:20:23.219Z,38.38
2024-01-05T04:20:54.873Z,38.52
2024-01-05T04:21:26.614Z,38.41
2024-01-05T04:21:58.207Z,38.48
2024-01-05T04:22:29.785Z,38.26
2024-01-05T04:23:01.398Z,38.41
2024-01-05T04:23:33.168Z,38.30
2024-01-05T04:24:04.946Z,38.46
2024-01-05T04:24:36.695Z,38.54
2024-01-05T04:25:08.314Z,38.31
2024-01-05T04:25:39.913Z,38.50
2024-01-05T04:26:11.481Z,38.46
2024-01-05T04:26:43.221Z,38.20
2024-01-05T04:27:15.046Z,38.07
2024-01-05T04:27:46.878Z,38.33
2024-01-05T04:28:18.542Z,38.38
2024-01-05T04:28:50.240Z,38.05
2024-01-05T04:29:21.804Z,38.39
2024-01-05T04:29:53.440Z,38.25
2024-01-05T04:30:25.065Z,38.60
2024-01-05T04:30:56.837Z,38.56
2024-01-05T04:31:28.665Z,38.67
2024-01-05T04:32:00.451Z,38.59
2024-01-05T04:32:32.111Z,38.57
2024-01-05T04:33:03.943Z,38.27
2024-01-05T04:33:35.695Z,38.04
2024-01-05T04:34:07.521Z,38.13
2024-01-05T04:34:39.222Z,38.69
2024-01-05T04:35:10.860Z,38.17
2024-01-05T04:35:42.584Z,38.34
2024-01-05T04:36:14.148Z,38.19
2024-01-05T04:36:45.994Z,38.16
2024-01-05T04:37:17.782Z,38.39
2024-01-05T04:37:49.469Z,38.39
2024-01-05T04:38:21.032Z,38.19
2024-01-05T04:38:52.666Z,38.45
2024-01-05T04:39:24.309Z,38.06
2024-01-05T04:39:55.910Z,38.04
2024-01-05T04:40:27.490Z,38.32
2024-01-05T04:40:59.108Z,38.37
2024-01-05T04:41:30.882Z,38.20
2024-01-05T04:42:02.595Z,38.29
2024-01-05T04:42:34.399Z,38.35
2024-01-05T04:43:06.024Z,38.09
2024-01-05T04:43:37.666Z,37.93
2024-01-05T04:44:09.255Z,38.35
2024-01-05T04:44:40.831Z,38.54
2024-01-05T04:45:12.525Z,38.78
2024-01-05T04:45:44.282Z,38.37
2024-01-05T04:46:15.995Z,38.27
2024-01-05T04:46:47.908Z,38.68
2024-01-05T04:47:19.511Z,38.38
2024-01-05T04:47:51.160Z,38.66
2024-01-05T04:48:22.949Z,38.64
2024-01-05T04:48:54.706Z,38.72
2024-01-05T04:49:26.412Z,38.65
2024-01-05T04:49:58.127Z,38.52
2024-01-05T04:50:29.813Z,38.41
2024-01-05T04:51:01.735Z,38.39
2024-01-05T04:51:33.424Z,38.56
2024-01-05T04:52:05.259Z,38.44
2024-01-05T04:52:36.892Z,38.25
2024-01-05T04:53:08.603Z,38.43
2024-01-05T04:53:40.192Z,38.07
2024-01-05T04:54:11.903Z,38.26
2024-01-05T04:54:43.509Z,38.32
2024-01-05T04:55:15.073Z,38.30
2024-01-05T04:55:46.697Z,38.13
2024-01-05T04:56:18.293Z,38.19
2024-01-05T04:56:49.984Z,38.24
2024-01-05T04:57:21.620Z,38.25
2024-01-05T04:57:53.259Z,38.47
2024-01-05T04:58:25.010Z,37.97
2024-01-05T04:58:56.617Z,38.37
2024-01-05T04:59:28.144Z,38.08
2024-01-05T04:59:59.780Z,38.42
2024-01-05T05:00:31.461Z,38.50
2024-01-05T05:01:03.060Z,38.52
2024-01-05T05:01:34.740Z,38.41
2024-01-05T05:02:06.327Z,38.23
2024-01-05T05:02:37.982Z,38.25
2024-01-05T05:03:09.600Z,38.41
2024-01-05T05:03:41.361Z,38.37
2024-01-05T05:04:13.032Z,38.35
2024-01-05T05:04:45.842Z,38.07
2024-01-05T05:05:17.676Z,38.10
2024-01-05T05:05:49.509Z,37.97
2024-01-05T05:06:21.212Z,38.28
2024-01-05T05:06:52.767Z,38.52
2024-01-05T05:07:24.375Z,38.51
2024-01-05T05:07:56.042Z,38.11
2024-01-05T05:08:28.039Z,38.32
2024-01-05T05:08:59.702Z,38.32
2024-01-05T05:09:31.340Z,38.29
2024-01-05T05:10:02.987Z,38.22
2024-01-05T05:10:34.568Z,38.12
2024-01-05T05:11:06.132Z,38.17
2024-01-05T05:11:39.193Z,38.10
2024-01-05T05:12:10.816Z,38.33
2024-01-05T05:12:42.441Z,38.29
2024-01-05T05:13:14.112Z,38.13
2024-01-05T05:13:45.735Z,38.27
2024-01-05T05:14:17.376Z,38.18
2024-01-05T05:14:48.951Z,38.15
2024-01-05T05:15:20.569Z,38.49
2024-01-05T05:15:52.215Z,38.09
2024-01-05T05:16:23.795Z,38.36
2024-01-05T05:16:55.369Z,38.08
2024-01-05T05:17:27.096Z,38.22
2024-01-05T05:17:58.825Z,38.27
2024-01-05T05:18:30.560Z,38.35
2024-01-05T05:19:02.523Z,38.09
2024-01-05T05:19:34.425Z,38.49
2024-01-05T05:20:06.369Z,38.11
2024-01-05T05:20:38.053Z,38.23
2024-01-05T05:21:09.639Z,38.63
2024-01-05T05:21:41.401Z,38.59
2024-01-05T05:22:13.034Z,38.57
2024-01-05T05:22:44.650Z,38.12
2024-01-05T05:23:16.250Z,38.29
2024-01-05T05:23:47.920Z,38.31
2024-01-05T05:24:19.618Z,38.29
2024-01-05T05:24:51.359Z,38.45
2024-01-05T05:25:23.076Z,38.25
2024-01-05T05:25:54.695Z,38.16
2024-01-05T05:26:26.342Z,38.08
2024-01-05T05:26:57.942Z,37.88
2024-01-05T05:27:29.876Z,38.41
2024-01-05T05:28:01.531Z,38.38
2024-01-05T05:28:33.191Z,38.28
2024-01-05T05:29:05.074Z,38.43
2024-01-05T05:29:36.780Z,38.26
2024-01-05T05:30:08.922Z,38.21
2024-01-05T05:30:40.633Z,38.39
2024-01-05T05:31:12.233Z,38.44
2024-01-05T05:31:44.141Z,38.29
2024-01-05T05:32:15.902Z,38.12
2024-01-05T05:32:47.600Z,38.24
2024-01-05T05:33:19.375Z,38.54
2024-01-05T05:33:51.206Z,38.49
2024-01-05T05:34:22.947Z,38.17
2024-01-05T05:34:54.686Z,38.42
2024-01-05T05:35:26.358Z,38.24
2024-01-05T05:35:58.098Z,38.20
2024-01-05T05:36:29.873Z,38.32
2024-01-05T05:37:01.505Z,38.11
2024-01-05T05:37:33.131Z,38.29
2024-01-05T05:38:04.704Z,38.36
2024-01-05T05:38:36.272Z,38.25
2024-01-05T05:39:07.877Z,38.30
2024-01-05T05:39:39.562Z,38.16
2024-01-05T05:40:12.179Z,38.38
2024-01-05T05:40:43.763Z,38.19
2024-01-05T05:41:15.359Z,38.37
2024-01-05T05:41:47.039Z,38.61
2024-01-05T05:42:18.825Z,38.19
2024-01-05T05:42:50.474Z,38.37
2024-01-05T05:43:23.184Z,38.18
2024-01-05T05:43:54.734Z,38.10
2024-01-05T05:44:26.284Z,38.44
2024-01-05T05:44:57.867Z,38.63
2024-01-05T05:45:29.488Z,38.50
2024-01-05T05:46:01.074Z,38.38
2024-01-05T05:46:32.610Z,38.39
2024-01-05T05:47:04.274Z,38.24
2024-01-05T05:47:36.054Z,38.45
2024-01-05T05:48:07.992Z,38.07
2024-01-05T05:48:39.811Z,38.39
2024-01-05T05:49:11.696Z,38.27
2024-01-05T05:49:43.556Z,38.18
2024-01-05T05:50:15.357Z,38.44
2024-01-05T05:50:46.972Z,38.31
2024-01-05T05:51:18.677Z,38.52
2024-01-05T05:51:50.331Z,38.62
2024-01-05T05:52:21.939Z,38.59
2024-01-05T05:52:53.517Z,38.47
2024-01-05T05:53:25.069Z,38.45
2024-01-05T05:53:56.663Z,38.35
2024-01-05T05:54:28.306Z,38.58
2024-01-05T05:54:59.861Z,38.09
2024-01-05T05:55:31.463Z,38.51
2024-01-05T05:56:03.146Z,38.23
2024-01-05T05:56:34.736Z,38.06
2024-01-05T05:57:06.332Z,38.07
2024-01-05T05:57:38.108Z,38.41
2024-01-05T05:58:09.808Z,38.02
2024-01-05T05:58:41.390Z,38.62
2024-01-05T05:59:12.992Z,38.28
2024-01-05T05:59:44.547Z,38.11
2024-01-05T06:00:16.382Z,38.50
2024-01-05T06:00:48.155Z,38.21
2024-01-05T06:01:19.880Z,38.36
2024-01-05T06:01:51.451Z,38.56
2024-01-05T06:02:22.987Z,38.28
2024-01-05T06:02:54.517Z,38.31
2024-01-05T06:03:26.282Z,38.67
2024-01-05T06:03:58.048Z,38.33
2024-01-05T06:04:29.968Z,38.58
2024-01-05T06:05:01.579Z,38.61
2024-01-05T06:05:33.280Z,38.31
2024-01-05T06:06:05.167Z,38.26
2024-01-05T06:06:36.832Z,38.01
2024-01-05T06:07:08.598Z,38.31
2024-01-05T06:07:40.176Z,38.42
2024-01-05T06:08:11.823Z,37.86
2024-01-05T06:08:43.408Z,38.38
2024-01-05T06:09:14.961Z,38.39
2024-01-05T06:09:46.553Z,38.43
2024-01-05T06:10:18.198Z,38.52
2024-01-05T06:10:49.794Z,38.57
2024-01-05T06:11:21.432Z,38.48
2024-01-05T06:11:53.116Z,38.46
2024-01-05T06:12:24.764Z,38.29
2024-01-05T06:12:56.335Z,38.50
2024-01-05T06:13:27.859Z,38.00
2024-01-05T06:13:59.437Z,38.23
2024-01-05T06:14:31.150Z,38.57
2024-01-05T06:15:03.356Z,38.42
2024-01-05T06:15:35.116Z,37.94
2024-01-05T06:16:06.812Z,38.39
2024-01-05T06:16:38.399Z,38.36
2024-01-05T06:17:09.968Z,38.48
2024-01-05T06:17:41.647Z,38.42
2024-01-05T06:18:13.309Z,38.17
2024-01-05T06:18:45.169Z,38.21
2024-01-05T06:19:16.958Z,38.14
2024-01-05T06:19:49.063Z,38.49
2024-01-05T06:20:20.735Z,38.23
2024-01-05T06:20:52.264Z,38.39
2024-01-05T06:21:23.914Z,38.25
2024-01-05T06:21:55.509Z,38.41
2024-01-05T06:22:27.075Z,38.18
2024-01-05T06:22:58.637Z,38.40
2024-01-05T06:23:30.189Z,38.29
2024-01-05T06:24:01.859Z,38.30
2024-01-05T06:24:33.588Z,38.21
2024-01-05T06:25:05.328Z,38.67
2024-01-05T06:25:36.842Z,38.22
2024-01-05T06:26:08.410Z,38.06
2024-01-05T06:26:39.972Z,38.43
2024-01-05T06:27:14.469Z,38.32
2024-01-05T06:27:47.648Z,38.46
2024-01-05T06:28:19.223Z,38.40
2024-01-05T06:28:50.847Z,38.28
2024-01-05T06:29:22.432Z,38.18
2024-01-05T06:29:54.039Z,38.63
2024-01-05T06:30:25.812Z,38.25
2024-01-05T06:30:57.565Z,38.37
2024-01-05T06:31:29.171Z,37.97
2024-01-05T06:32:00.765Z,38.49
2024-01-05T06:32:32.512Z,38.18
2024-01-05T06:33:04.394Z,38.21
2024-01-05T06:33:36.293Z,37.96
2024-01-05T06:34:08.138Z,38.11
2024-01-05T06:34:39.835Z,38.40
2024-01-05T06:35:11.393Z,38.04
2024-01-05T06:35:42.924Z,38.27
2024-01-05T06:36:14.503Z,38.47
2024-01-05T06:36:46.197Z,38.43
2024-01-05T06:37:17.738Z,38.52
2024-01-05T06:37:49.391Z,38.40
2024-01-05T06:38:20.969Z,38.71
2024-01-05T06:38:52.547Z,38.55
2024-01-05T06:39:24.173Z,37.79
2024-01-05T06:39:55.791Z,38.16
2024-01-05T06:40:27.413Z,38.55
2024-01-05T06:40:59.004Z,37.99
2024-01-05T06:41:30.602Z,38.02
2024-01-05T06:42:02.244Z,38.18
2024-01-05T06:42:33.932Z,38.37
2024-01-05T06:43:05.580Z,38.10
2024-01-05T06:43:37.144Z,38.09
2024-01-05T06:44:08.707Z,37.87
2024-01-05T06:44:40.319Z,38.15
2024-01-05T06:45:11.949Z,37.85
2024-01-05T06:45:43.580Z,38.23
2024-01-05T06:46:15.169Z,38.44
2024-01-05T06:46:46.788Z,38.18
2024-01-05T06:47:18.449Z,38.64
2024-01-05T06:47:50.177Z,38.35
2024-01-05T06:48:22.022Z,38.23
2024-01-05T06:48:53.952Z,38.20
2024-01-05T06:49:25.689Z,38.02